sensor_id;sensor_type;location;lat;lon;timestamp;temperature;humidity
9095;DHT22;4583;49.796;9.902;2023-04-28T09:18:05;13.00;99.70
9095;DHT22;4583;49.796;9.902;2023-04-28T09:28:21;13.10;99.90
9095;DHT22;4583;49.796;9.902;2023-04-28T09:38:23;13.30;99.90
9095;DHT22;4583;49.796;9.902;2023-04-28T09:48:33;13.30;99.90
9095;DHT22;4583;49.796;9.902;2023-04-28T09:58:38;13.50;99.90
9095;DHT22;4583;49.796;9.902;2023-04-28T10:08:41;13.60;99.90
9095;DHT22;4583;49.796;9.902;2023-04-28T10:18:44;13.60;99.90
9095;DHT22;4583;49.796;9.902;2023-04-28T10:28:50;14.10;99.90
9095;DHT22;4583;49.796;9.902;2023-04-28T10:39:10;14.20;99.90
9095;DHT22;4583;49.796;9.902;2023-04-28T10:49:15;14.30;99.90
9095;DHT22;4583;49.796;9.902;2023-04-28T10:59:26;14.70;99.90
9095;DHT22;4583;49.796;9.902;2023-04-28T11:19:36;14.90;99.90
9095;DHT22;4583;49.796;9.902;2023-04-28T11:29:39;14.90;99.90
9095;DHT22;4583;49.796;9.902;2023-04-28T11:39:42;15.80;99.90
9095;DHT22;4583;49.796;9.902;2023-04-28T11:49:45;16.00;99.90
9095;DHT22;4583;49.796;9.902;2023-04-28T11:59:47;16.10;99.90
9095;DHT22;4583;49.796;9.902;2023-04-28T12:10:12;16.80;99.50
9095;DHT22;4583;49.796;9.902;2023-04-28T12:20:35;16.70;99.10
9095;DHT22;4583;49.796;9.902;2023-04-28T12:30:38;16.60;99.30
9095;DHT22;4583;49.796;9.902;2023-04-28T12:40:42;17.00;99.30
9095;DHT22;4583;49.796;9.902;2023-04-28T12:50:44;16.90;99.40
9095;DHT22;4583;49.796;9.902;2023-04-28T13:00:46;16.60;99.40
9095;DHT22;4583;49.796;9.902;2023-04-28T13:10:48;16.50;99.90
9095;DHT22;4583;49.796;9.902;2023-04-28T13:20:51;16.90;99.90
9095;DHT22;4583;49.796;9.902;2023-04-28T13:30:53;17.20;99.90
9095;DHT22;4583;49.796;9.902;2023-04-28T13:40:54;17.60;99.90
9095;DHT22;4583;49.796;9.902;2023-04-28T13:50:56;17.80;99.80
9095;DHT22;4583;49.796;9.902;2023-04-28T14:00:58;17.30;99.50
9095;DHT22;4583;49.796;9.902;2023-04-28T14:11:00;16.90;99.90
9095;DHT22;4583;49.796;9.902;2023-04-28T14:21:02;17.10;99.90
9095;DHT22;4583;49.796;9.902;2023-04-28T14:31:08;17.00;99.90
9095;DHT22;4583;49.796;9.902;2023-04-28T14:41:10;18.50;99.90
9095;DHT22;4583;49.796;9.902;2023-04-28T14:51:12;19.70;98.60
9095;DHT22;4583;49.796;9.902;2023-04-28T15:01:14;19.20;97.80
9095;DHT22;4583;49.796;9.902;2023-04-28T15:11:15;19.40;98.00
9095;DHT22;4583;49.796;9.902;2023-04-28T15:21:17;20.20;96.20
9095;DHT22;4583;49.796;9.902;2023-04-28T15:31:19;20.00;94.00
9095;DHT22;4583;49.796;9.902;2023-04-28T15:41:23;19.70;94.00
9095;DHT22;4583;49.796;9.902;2023-04-28T15:51:25;19.10;94.60
9095;DHT22;4583;49.796;9.902;2023-04-28T16:01:27;18.80;95.30
9095;DHT22;4583;49.796;9.902;2023-04-28T16:11:30;19.80;96.40
9095;DHT22;4583;49.796;9.902;2023-04-28T16:21:31;21.00;92.60
9095;DHT22;4583;49.796;9.902;2023-04-28T16:31:33;20.30;93.60
9095;DHT22;4583;49.796;9.902;2023-04-28T16:41:35;19.40;94.20
9095;DHT22;4583;49.796;9.902;2023-04-28T16:51:38;19.00;94.90
9095;DHT22;4583;49.796;9.902;2023-04-28T17:01:39;18.80;95.70
9095;DHT22;4583;49.796;9.902;2023-04-28T17:11:41;18.50;96.20
9095;DHT22;4583;49.796;9.902;2023-04-28T17:21:43;18.20;96.60
9095;DHT22;4583;49.796;9.902;2023-04-28T17:31:46;18.20;97.20
9095;DHT22;4583;49.796;9.902;2023-04-28T17:41:48;18.00;97.60
9095;DHT22;4583;49.796;9.902;2023-04-28T17:51:50;17.70;98.10
9095;DHT22;4583;49.796;9.902;2023-04-28T18:01:52;17.60;98.60
9095;DHT22;4583;49.796;9.902;2023-04-28T18:11:56;17.40;99.10
9095;DHT22;4583;49.796;9.902;2023-04-28T18:21:58;17.10;99.30
9095;DHT22;4583;49.796;9.902;2023-04-28T18:32:00;17.10;99.60
9095;DHT22;4583;49.796;9.902;2023-04-28T18:42:02;16.70;99.90
9095;DHT22;4583;49.796;9.902;2023-04-28T18:52:04;16.70;99.90
9095;DHT22;4583;49.796;9.902;2023-04-28T19:02:06;16.40;99.90
9095;DHT22;4583;49.796;9.902;2023-04-28T19:12:09;16.00;99.90
9095;DHT22;4583;49.796;9.902;2023-04-28T19:22:30;15.90;99.90
9095;DHT22;4583;49.796;9.902;2023-04-28T19:32:33;15.80;99.90
9095;DHT22;4583;49.796;9.902;2023-04-28T19:42:35;15.50;99.90
9095;DHT22;4583;49.796;9.902;2023-04-28T19:52:36;15.40;99.90
9095;DHT22;4583;49.796;9.902;2023-04-28T20:02:38;15.10;99.90
9095;DHT22;4583;49.796;9.902;2023-04-28T20:17:23;14.90;99.90
9095;DHT22;4583;49.796;9.902;2023-04-28T20:27:26;14.80;99.90
9095;DHT22;4583;49.796;9.902;2023-04-28T20:37:27;14.70;99.90
9095;DHT22;4583;49.796;9.902;2023-04-28T20:47:30;14.50;99.90
9095;DHT22;4583;49.796;9.902;2023-04-28T20:57:32;14.50;99.90
9095;DHT22;4583;49.796;9.902;2023-04-28T21:07:34;14.30;99.90
9095;DHT22;4583;49.796;9.902;2023-04-28T21:17:36;14.10;99.90
9095;DHT22;4583;49.796;9.902;2023-04-28T21:27:39;14.10;99.90
9095;DHT22;4583;49.796;9.902;2023-04-28T21:37:41;14.10;99.90
9095;DHT22;4583;49.796;9.902;2023-04-28T21:47:42;14.10;99.90
9095;DHT22;4583;49.796;9.902;2023-04-28T21:57:44;14.00;99.90
9095;DHT22;4583;49.796;9.902;2023-04-28T22:07:46;13.80;99.90
9095;DHT22;4583;49.796;9.902;2023-04-28T22:17:49;13.70;99.90
9095;DHT22;4583;49.796;9.902;2023-04-28T22:27:50;13.50;99.90
9095;DHT22;4583;49.796;9.902;2023-04-28T22:37:52;13.50;99.90
9095;DHT22;4583;49.796;9.902;2023-04-28T22:47:54;13.40;99.90
9095;DHT22;4583;49.796;9.902;2023-04-28T22:57:57;13.40;99.90
9095;DHT22;4583;49.796;9.902;2023-04-28T23:07:59;13.40;99.90
9095;DHT22;4583;49.796;9.902;2023-04-28T23:18:00;13.40;99.90
9095;DHT22;4583;49.796;9.902;2023-04-28T23:28:02;13.30;99.90
9095;DHT22;4583;49.796;9.902;2023-04-28T23:38:04;13.10;99.90
9095;DHT22;4583;49.796;9.902;2023-04-28T23:48:05;13.10;99.90
9095;DHT22;4583;49.796;9.902;2023-04-28T23:58:07;13.00;99.90
